Kenai, AK

11:59 AM AKDT on March 29, 2017 (GMT -0800)
Crow ct | | Change Station

Elev 99 ft 60.55 °N, 151.20 °W | Updated 47 seconds ago

Overcast
Overcast
30.9 °F
Feels Like 25 °F
N
5.8
Wind Variable Wind from SSW

Today
High -- | Low -- °F
--% Chance of Precip.
Yesterday
High -- | Low -- °F
Precip. -- in
Pressure 29.59 in
Visibility 10.0 miles
Clouds Overcast 6500 ft
Windchill 25 °F
Dew Point 23 °F
Humidity 73%
Rainfall 0.00 in
Snow Depth Not available.
7:37 AM 8:43 PM
Waxing Crescent, 4% visible
METAR PAEN 291953Z 20008KT 10SM OVC065 M02/M04 A2958 RMK AO2 SLP020 T10221039
Pressure 29.59 in
Visibility 10.0 miles
Clouds Overcast 6500 ft
Windchill 25 °F
Dew Point 23 °F
Humidity 73%
Rainfall 0.00 in
Snow Depth Not available.
7:37 AM 8:43 PM
Waxing Crescent, 4% visible
METAR PAEN 291953Z 20008KT 10SM OVC065 M02/M04 A2958 RMK AO2 SLP020 T10221039

Get Severe Weather Alerts

Thanks for signing up!

Be on the lookout for a verification email in your inbox.

You'll start receiving the daily forecast at 8 AM.

×

10-Day Weather Forecast

Almanac

Astronomy

Mar. 29, 2017 Rise Set
Actual Time
Civil Twilight
Nautical Twilight
Astronomical Twilight
Moon
Length of Visible Light
Length of Day
Tomorrow will be .
, % of the Moon is Illuminated

Today's Extremes

State Highs State Lows

Community

WunderPhotos

Upload Photos

1,962,540 photos uploaded!

WunderBlog® & News

Nearby

Air Quality

  Air Quality AQ Index Pollutant
Not available.

Snow Depth

Station Depth Elevation

Earthquake Activity

City Distance Mag. Time & Date
Minimum magnitude displayed is 2.5.

Earthquake Activity

City Distance Mag. Time & Date
Minimum magnitude displayed is 2.5.

Coastal Water Temperatures

Place Temperature

Stations

Nearby Weather Stations

Station Location Temp. Windchill Dew Point Humidity Wind Precip. Elev Updated Type
                   

Watches & Warnings

There are currently no watches in effect.